Royal Clipper — 9HA2796 — position and weather

sailwx.info

Track history (hours):
 
Tides and Currents Weather Stations Pressure Air Temp Water Temp Dewpoint Dewpoint Depression Visibility Wind Speed Wind Dir Waves Ship Positions

Royal Clipper

Last reported at 2017-Dec-15 05:39 UTC. Time now 2017-Dec-16 01:50 UTC.
Position N 14°21' W 061°07'.

Length 137 m; draft 6 m.

Type: Ship. MMSI: 215813000.

Date/timePositionNaut miles runAvg speedWind from/ knotsBaromVisibWave heightAir tempDewpointWater temp
2017-Dec-15 05:39N 14°21' W 061°07'1 4.3
2017-Dec-15 05:27N 14°21' W 061°07'2 4.0
2017-Dec-15 04:51N 14°24' W 061°07'1 4.3
2017-Dec-15 04:30N 14°25' W 061°07'2 4.1
2017-Dec-15 03:56N 14°28' W 061°07'3 1.9
2017-Dec-15 02:28N 14°30' W 061°06'0 0.0
2017-Dec-15 00:58N 14°30' W 061°06'0 0.0
2017-Dec-15 00:28N 14°30' W 061°06'0 0.0
2017-Dec-14 18:19N 14°30' W 061°06'0 0.0
2017-Dec-14 17:31N 14°30' W 061°06'0 0.2
2017-Dec-14 17:11N 14°30' W 061°06'6 0.9
2017-Dec-14 10:55N 14°36' W 061°05'1 3.6
2017-Dec-14 10:30N 14°35' W 061°06'3 6.4
2017-Dec-14 10:00N 14°32' W 061°07'3 6.8
2017-Dec-14 09:30N 14°29' W 061°08'4 6.8
2017-Dec-14 08:59N 14°25' W 061°08'4 7.6
2017-Dec-14 08:29N 14°22' W 061°09'  
Track history (hours):
 
Tides and Currents Weather Stations Pressure Air Temp Water Temp Dewpoint Dewpoint Depression Visibility Wind Speed Wind Dir Waves Ship Positions

Royal Clipper

Last reported at 2017-Dec-15 05:39 UTC. Time now 2017-Dec-16 01:50 UTC.
Position N 14°21' W 061°07'.

Length 137 m; draft 6 m.

Type: Ship. MMSI: 215813000.

Date/timePositionNaut miles runAvg speedWind from/ knotsBaromVisibWave heightAir tempDewpointWater temp
2017-Dec-15 05:39N 14°21' W 061°07'1 4.3
2017-Dec-15 05:27N 14°21' W 061°07'2 4.0
2017-Dec-15 04:51N 14°24' W 061°07'1 4.3
2017-Dec-15 04:30N 14°25' W 061°07'2 4.1
2017-Dec-15 03:56N 14°28' W 061°07'3 1.9
2017-Dec-15 02:28N 14°30' W 061°06'0 0.0
2017-Dec-15 00:58N 14°30' W 061°06'0 0.0
2017-Dec-15 00:28N 14°30' W 061°06'0 0.0
2017-Dec-14 18:19N 14°30' W 061°06'0 0.0
2017-Dec-14 17:31N 14°30' W 061°06'0 0.2
2017-Dec-14 17:11N 14°30' W 061°06'6 0.9
2017-Dec-14 10:55N 14°36' W 061°05'1 3.6
2017-Dec-14 10:30N 14°35' W 061°06'3 6.4
2017-Dec-14 10:00N 14°32' W 061°07'3 6.8
2017-Dec-14 09:30N 14°29' W 061°08'4 6.8
2017-Dec-14 08:59N 14°25' W 061°08'4 7.6
2017-Dec-14 08:29N 14°22' W 061°09'  

Dump ship's entire track history